sensor_id;sensor_type;location;lat;lon;timestamp;P1;durP1;ratioP1;P2;durP2;ratioP2
36833;SDS011;48003;52.084;5.224;2023-03-03T00:00:55;15.2;;;10.9;;
36833;SDS011;48003;52.084;5.224;2023-03-03T00:02:31;15.2;;;10.9;;
36833;SDS011;48003;52.084;5.224;2023-03-03T00:04:07;16.8;;;11.0;;
36833;SDS011;48003;52.084;5.224;2023-03-03T00:07:19;16.2;;;10.9;;
36833;SDS011;48003;52.084;5.224;2023-03-03T00:08:56;16.11;;;11.1;;
36833;SDS011;48003;52.084;5.224;2023-03-03T00:10:32;15.1;;;11.1;;
36833;SDS011;48003;52.084;5.224;2023-03-03T00:13:57;16.11;;;11.1;;
36833;SDS011;48003;52.084;5.224;2023-03-03T00:15:33;15.7;;;11.1;;
36833;SDS011;48003;52.084;5.224;2023-03-03T00:17:12;15.0;;;10.6;;
36833;SDS011;48003;52.084;5.224;2023-03-03T00:18:56;18.2;;;11.4;;
36833;SDS011;48003;52.084;5.224;2023-03-03T00:22:13;17.7;;;11.5;;
36833;SDS011;48003;52.084;5.224;2023-03-03T00:24:14;17.41;;;11.3;;
36833;SDS011;48003;52.084;5.224;2023-03-03T00:25:54;16.8;;;11.0;;
36833;SDS011;48003;52.084;5.224;2023-03-03T00:27:33;18.0;;;11.4;;
36833;SDS011;48003;52.084;5.224;2023-03-03T00:29:23;15.8;;;11.0;;
36833;SDS011;48003;52.084;5.224;2023-03-03T00:32:52;18.91;;;11.7;;
36833;SDS011;48003;52.084;5.224;2023-03-03T00:34:28;18.3;;;12.0;;
36833;SDS011;48003;52.084;5.224;2023-03-03T00:36:09;19.41;;;11.8;;
36833;SDS011;48003;52.084;5.224;2023-03-03T00:38:13;18.91;;;12.2;;
36833;SDS011;48003;52.084;5.224;2023-03-03T00:39:52;18.91;;;12.0;;
36833;SDS011;48003;52.084;5.224;2023-03-03T00:43:11;19.0;;;12.4;;
36833;SDS011;48003;52.084;5.224;2023-03-03T00:44:55;19.61;;;12.9;;
36833;SDS011;48003;52.084;5.224;2023-03-03T00:46:32;18.91;;;12.7;;
36833;SDS011;48003;52.084;5.224;2023-03-03T00:48:18;21.5;;;12.8;;
36833;SDS011;48003;52.084;5.224;2023-03-03T00:52:00;20.8;;;12.8;;
36833;SDS011;48003;52.084;5.224;2023-03-03T00:53:36;19.61;;;12.5;;
36833;SDS011;48003;52.084;5.224;2023-03-03T00:55:12;20.8;;;13.3;;
36833;SDS011;48003;52.084;5.224;2023-03-03T00:56:48;18.7;;;13.0;;
36833;SDS011;48003;52.084;5.224;2023-03-03T00:58:24;19.91;;;13.0;;
36833;SDS011;48003;52.084;5.224;2023-03-03T01:01:39;19.11;;;13.4;;
36833;SDS011;48003;52.084;5.224;2023-03-03T01:03:17;20.6;;;14.0;;
36833;SDS011;48003;52.084;5.224;2023-03-03T01:04:55;20.7;;;13.7;;
36833;SDS011;48003;52.084;5.224;2023-03-03T01:08:07;20.7;;;13.8;;
36833;SDS011;48003;52.084;5.224;2023-03-03T01:09:44;24.3;;;14.7;;
36833;SDS011;48003;52.084;5.224;2023-03-03T01:11:21;24.2;;;15.8;;
36833;SDS011;48003;52.084;5.224;2023-03-03T01:14:38;23.2;;;15.4;;
36833;SDS011;48003;52.084;5.224;2023-03-03T01:16:15;22.1;;;15.2;;
36833;SDS011;48003;52.084;5.224;2023-03-03T01:17:52;24.1;;;15.6;;
36833;SDS011;48003;52.084;5.224;2023-03-03T01:19:29;23.5;;;16.11;;
36833;SDS011;48003;52.084;5.224;2023-03-03T01:22:42;26.1;;;16.5;;
36833;SDS011;48003;52.084;5.224;2023-03-03T01:24:19;25.6;;;16.4;;
36833;SDS011;48003;52.084;5.224;2023-03-03T01:25:55;24.9;;;16.0;;
36833;SDS011;48003;52.084;5.224;2023-03-03T01:29:10;24.8;;;16.2;;
36833;SDS011;48003;52.084;5.224;2023-03-03T01:30:46;24.5;;;16.11;;
36833;SDS011;48003;52.084;5.224;2023-03-03T01:32:22;25.0;;;16.9;;
36833;SDS011;48003;52.084;5.224;2023-03-03T01:33:58;25.5;;;17.3;;
36833;SDS011;48003;52.084;5.224;2023-03-03T01:37:11;25.5;;;16.7;;
36833;SDS011;48003;52.084;5.224;2023-03-03T01:38:47;25.4;;;17.11;;
36833;SDS011;48003;52.084;5.224;2023-03-03T01:40:24;26.5;;;18.0;;
36833;SDS011;48003;52.084;5.224;2023-03-03T01:43:42;28.2;;;18.41;;
36833;SDS011;48003;52.084;5.224;2023-03-03T01:45:21;26.1;;;18.41;;
36833;SDS011;48003;52.084;5.224;2023-03-03T01:46:59;26.9;;;18.41;;
36833;SDS011;48003;52.084;5.224;2023-03-03T01:48:42;27.2;;;18.3;;
36833;SDS011;48003;52.084;5.224;2023-03-03T01:52:09;28.8;;;19.61;;
36833;SDS011;48003;52.084;5.224;2023-03-03T01:53:50;29.4;;;19.61;;
36833;SDS011;48003;52.084;5.224;2023-03-03T01:55:32;30.8;;;20.3;;
36833;SDS011;48003;52.084;5.224;2023-03-03T01:57:11;32.0;;;20.6;;
36833;SDS011;48003;52.084;5.224;2023-03-03T02:00:37;31.7;;;20.8;;
36833;SDS011;48003;52.084;5.224;2023-03-03T02:02:15;31.0;;;20.6;;
36833;SDS011;48003;52.084;5.224;2023-03-03T02:03:52;32.8;;;21.7;;
36833;SDS011;48003;52.084;5.224;2023-03-03T02:05:28;32.3;;;20.6;;
36833;SDS011;48003;52.084;5.224;2023-03-03T02:08:46;30.4;;;20.11;;
36833;SDS011;48003;52.084;5.224;2023-03-03T02:10:28;32.6;;;21.0;;
36833;SDS011;48003;52.084;5.224;2023-03-03T02:12:07;31.3;;;20.7;;
36833;SDS011;48003;52.084;5.224;2023-03-03T02:13:47;31.9;;;21.5;;
36833;SDS011;48003;52.084;5.224;2023-03-03T02:17:02;33.5;;;21.7;;
36833;SDS011;48003;52.084;5.224;2023-03-03T02:18:38;31.4;;;20.7;;
36833;SDS011;48003;52.084;5.224;2023-03-03T02:20:15;31.3;;;21.2;;
36833;SDS011;48003;52.084;5.224;2023-03-03T02:23:39;33.6;;;20.9;;
36833;SDS011;48003;52.084;5.224;2023-03-03T02:25:25;31.5;;;20.2;;
36833;SDS011;48003;52.084;5.224;2023-03-03T02:27:09;32.0;;;20.6;;
36833;SDS011;48003;52.084;5.224;2023-03-03T02:28:45;30.7;;;19.91;;
36833;SDS011;48003;52.084;5.224;2023-03-03T02:32:00;31.1;;;21.2;;
36833;SDS011;48003;52.084;5.224;2023-03-03T02:33:37;32.5;;;20.5;;
36833;SDS011;48003;52.084;5.224;2023-03-03T02:35:31;32.21;;;21.2;;
36833;SDS011;48003;52.084;5.224;2023-03-03T02:37:09;35.81;;;22.3;;
36833;SDS011;48003;52.084;5.224;2023-03-03T02:40:30;34.0;;;22.2;;
36833;SDS011;48003;52.084;5.224;2023-03-03T02:42:13;35.0;;;22.6;;
36833;SDS011;48003;52.084;5.224;2023-03-03T02:43:56;33.71;;;22.1;;
36833;SDS011;48003;52.084;5.224;2023-03-03T02:45:40;34.31;;;22.6;;
36833;SDS011;48003;52.084;5.224;2023-03-03T02:47:17;36.6;;;22.7;;
36833;SDS011;48003;52.084;5.224;2023-03-03T02:50:29;37.9;;;22.5;;
36833;SDS011;48003;52.084;5.224;2023-03-03T02:52:06;38.1;;;23.8;;
36833;SDS011;48003;52.084;5.224;2023-03-03T02:53:45;37.9;;;24.3;;
36833;SDS011;48003;52.084;5.224;2023-03-03T02:56:59;40.31;;;24.2;;
36833;SDS011;48003;52.084;5.224;2023-03-03T02:58:36;38.9;;;24.0;;
36833;SDS011;48003;52.084;5.224;2023-03-03T03:00:13;38.6;;;23.7;;
36833;SDS011;48003;52.084;5.224;2023-03-03T03:01:49;38.0;;;23.8;;
36833;SDS011;48003;52.084;5.224;2023-03-03T03:05:03;39.31;;;24.4;;
36833;SDS011;48003;52.084;5.224;2023-03-03T03:06:40;37.6;;;23.4;;
36833;SDS011;48003;52.084;5.224;2023-03-03T03:08:17;41.2;;;23.5;;
36833;SDS011;48003;52.084;5.224;2023-03-03T03:11:29;40.71;;;23.9;;
36833;SDS011;48003;52.084;5.224;2023-03-03T03:13:06;36.71;;;23.1;;
36833;SDS011;48003;52.084;5.224;2023-03-03T03:14:42;37.21;;;23.3;;
36833;SDS011;48003;52.084;5.224;2023-03-03T03:17:54;35.6;;;22.6;;
36833;SDS011;48003;52.084;5.224;2023-03-03T03:19:30;34.21;;;22.6;;
36833;SDS011;48003;52.084;5.224;2023-03-03T03:21:07;35.1;;;22.1;;
36833;SDS011;48003;52.084;5.224;2023-03-03T03:22:45;35.1;;;22.1;;
36833;SDS011;48003;52.084;5.224;2023-03-03T03:25:57;36.1;;;22.7;;
36833;SDS011;48003;52.084;5.224;2023-03-03T03:27:34;35.5;;;22.0;;
36833;SDS011;48003;52.084;5.224;2023-03-03T03:29:10;36.4;;;22.3;;
36833;SDS011;48003;52.084;5.224;2023-03-03T03:32:21;34.71;;;21.9;;
36833;SDS011;48003;52.084;5.224;2023-03-03T03:33:57;35.0;;;22.0;;
36833;SDS011;48003;52.084;5.224;2023-03-03T03:35:33;36.71;;;22.1;;
36833;SDS011;48003;52.084;5.224;2023-03-03T03:38:47;35.5;;;22.2;;
36833;SDS011;48003;52.084;5.224;2023-03-03T03:40:23;35.9;;;21.8;;
36833;SDS011;48003;52.084;5.224;2023-03-03T03:41:59;37.1;;;22.1;;
36833;SDS011;48003;52.084;5.224;2023-03-03T03:45:12;38.21;;;22.8;;
36833;SDS011;48003;52.084;5.224;2023-03-03T03:46:48;37.1;;;22.0;;
36833;SDS011;48003;52.084;5.224;2023-03-03T03:48:25;37.5;;;22.5;;
36833;SDS011;48003;52.084;5.224;2023-03-03T03:50:02;36.6;;;22.5;;
36833;SDS011;48003;52.084;5.224;2023-03-03T03:53:14;36.4;;;22.1;;
36833;SDS011;48003;52.084;5.224;2023-03-03T03:54:51;37.81;;;21.9;;
36833;SDS011;48003;52.084;5.224;2023-03-03T03:56:27;34.31;;;20.6;;
36833;SDS011;48003;52.084;5.224;2023-03-03T03:59:40;36.21;;;21.9;;
36833;SDS011;48003;52.084;5.224;2023-03-03T04:01:16;37.4;;;22.1;;
36833;SDS011;48003;52.084;5.224;2023-03-03T04:02:52;34.9;;;21.4;;
36833;SDS011;48003;52.084;5.224;2023-03-03T04:06:05;37.9;;;22.3;;
36833;SDS011;48003;52.084;5.224;2023-03-03T04:07:41;38.0;;;22.1;;
36833;SDS011;48003;52.084;5.224;2023-03-03T04:09:17;35.0;;;20.9;;
36833;SDS011;48003;52.084;5.224;2023-03-03T04:10:54;38.1;;;21.9;;
36833;SDS011;48003;52.084;5.224;2023-03-03T04:14:07;36.0;;;22.0;;
36833;SDS011;48003;52.084;5.224;2023-03-03T04:15:43;35.1;;;21.6;;
36833;SDS011;48003;52.084;5.224;2023-03-03T04:17:20;35.6;;;21.2;;
36833;SDS011;48003;52.084;5.224;2023-03-03T04:20:33;34.5;;;21.3;;
36833;SDS011;48003;52.084;5.224;2023-03-03T04:22:09;38.21;;;22.0;;
36833;SDS011;48003;52.084;5.224;2023-03-03T04:23:45;37.4;;;21.8;;
36833;SDS011;48003;52.084;5.224;2023-03-03T04:26:59;35.31;;;20.5;;
36833;SDS011;48003;52.084;5.224;2023-03-03T04:28:35;33.5;;;19.91;;
36833;SDS011;48003;52.084;5.224;2023-03-03T04:30:12;35.71;;;20.11;;
36833;SDS011;48003;52.084;5.224;2023-03-03T04:31:50;34.1;;;20.6;;
36833;SDS011;48003;52.084;5.224;2023-03-03T04:35:03;37.0;;;20.8;;
36833;SDS011;48003;52.084;5.224;2023-03-03T04:36:40;36.71;;;19.91;;
36833;SDS011;48003;52.084;5.224;2023-03-03T04:38:17;33.1;;;19.7;;
36833;SDS011;48003;52.084;5.224;2023-03-03T04:41:29;37.31;;;20.6;;
36833;SDS011;48003;52.084;5.224;2023-03-03T04:43:05;35.5;;;20.6;;
36833;SDS011;48003;52.084;5.224;2023-03-03T04:44:41;35.1;;;19.91;;
36833;SDS011;48003;52.084;5.224;2023-03-03T04:47:54;34.81;;;19.8;;
36833;SDS011;48003;52.084;5.224;2023-03-03T04:49:31;36.9;;;20.41;;
36833;SDS011;48003;52.084;5.224;2023-03-03T04:51:06;33.4;;;19.3;;
36833;SDS011;48003;52.084;5.224;2023-03-03T04:52:43;35.21;;;20.2;;
36833;SDS011;48003;52.084;5.224;2023-03-03T04:55:55;35.31;;;19.61;;
36833;SDS011;48003;52.084;5.224;2023-03-03T04:57:31;34.71;;;19.0;;
36833;SDS011;48003;52.084;5.224;2023-03-03T04:59:06;36.71;;;19.3;;
36833;SDS011;48003;52.084;5.224;2023-03-03T05:02:19;36.4;;;18.8;;
36833;SDS011;48003;52.084;5.224;2023-03-03T05:03:55;35.1;;;19.5;;
36833;SDS011;48003;52.084;5.224;2023-03-03T05:05:31;29.8;;;17.41;;
36833;SDS011;48003;52.084;5.224;2023-03-03T05:08:43;33.5;;;18.61;;
36833;SDS011;48003;52.084;5.224;2023-03-03T05:10:19;31.9;;;18.11;;
36833;SDS011;48003;52.084;5.224;2023-03-03T05:11:55;32.9;;;17.8;;
36833;SDS011;48003;52.084;5.224;2023-03-03T05:15:08;32.21;;;17.61;;
36833;SDS011;48003;52.084;5.224;2023-03-03T05:16:47;31.5;;;18.11;;
36833;SDS011;48003;52.084;5.224;2023-03-03T05:18:23;32.0;;;17.7;;
36833;SDS011;48003;52.084;5.224;2023-03-03T05:20:01;33.5;;;17.7;;
36833;SDS011;48003;52.084;5.224;2023-03-03T05:23:14;33.5;;;18.7;;
36833;SDS011;48003;52.084;5.224;2023-03-03T05:24:51;33.1;;;18.8;;
36833;SDS011;48003;52.084;5.224;2023-03-03T05:26:28;32.8;;;18.3;;
36833;SDS011;48003;52.084;5.224;2023-03-03T05:29:40;31.0;;;18.11;;
36833;SDS011;48003;52.084;5.224;2023-03-03T05:31:16;34.1;;;18.41;;
36833;SDS011;48003;52.084;5.224;2023-03-03T05:32:52;33.8;;;18.7;;
36833;SDS011;48003;52.084;5.224;2023-03-03T05:36:05;32.5;;;18.41;;
36833;SDS011;48003;52.084;5.224;2023-03-03T05:37:42;31.3;;;18.0;;
36833;SDS011;48003;52.084;5.224;2023-03-03T05:39:18;30.3;;;17.2;;
36833;SDS011;48003;52.084;5.224;2023-03-03T05:40:54;29.9;;;16.7;;
36833;SDS011;48003;52.084;5.224;2023-03-03T05:44:06;30.8;;;16.9;;
36833;SDS011;48003;52.084;5.224;2023-03-03T05:45:43;29.1;;;15.9;;
36833;SDS011;48003;52.084;5.224;2023-03-03T05:47:19;28.5;;;14.5;;
36833;SDS011;48003;52.084;5.224;2023-03-03T05:50:32;27.7;;;15.1;;
36833;SDS011;48003;52.084;5.224;2023-03-03T05:52:08;28.3;;;15.8;;
36833;SDS011;48003;52.084;5.224;2023-03-03T05:53:44;29.9;;;15.5;;
36833;SDS011;48003;52.084;5.224;2023-03-03T05:56:56;27.2;;;15.2;;
36833;SDS011;48003;52.084;5.224;2023-03-03T05:58:32;29.1;;;15.4;;
36833;SDS011;48003;52.084;5.224;2023-03-03T06:00:09;26.8;;;15.3;;
36833;SDS011;48003;52.084;5.224;2023-03-03T06:01:46;27.9;;;14.9;;
36833;SDS011;48003;52.084;5.224;2023-03-03T06:04:59;25.7;;;13.9;;
36833;SDS011;48003;52.084;5.224;2023-03-03T06:06:35;28.5;;;15.2;;
36833;SDS011;48003;52.084;5.224;2023-03-03T06:08:11;25.7;;;14.8;;
36833;SDS011;48003;52.084;5.224;2023-03-03T06:11:23;26.5;;;14.2;;
36833;SDS011;48003;52.084;5.224;2023-03-03T06:12:59;26.2;;;14.6;;
36833;SDS011;48003;52.084;5.224;2023-03-03T06:14:35;27.8;;;14.5;;
36833;SDS011;48003;52.084;5.224;2023-03-03T06:17:48;26.2;;;14.4;;
36833;SDS011;48003;52.084;5.224;2023-03-03T06:19:24;26.3;;;14.6;;
36833;SDS011;48003;52.084;5.224;2023-03-03T06:21:01;29.2;;;16.0;;
36833;SDS011;48003;52.084;5.224;2023-03-03T06:24:13;28.1;;;15.2;;
36833;SDS011;48003;52.084;5.224;2023-03-03T06:25:49;27.7;;;15.2;;
36833;SDS011;48003;52.084;5.224;2023-03-03T06:27:25;28.0;;;15.4;;
36833;SDS011;48003;52.084;5.224;2023-03-03T06:29:02;27.2;;;15.4;;
36833;SDS011;48003;52.084;5.224;2023-03-03T06:32:15;27.7;;;14.4;;
36833;SDS011;48003;52.084;5.224;2023-03-03T06:33:51;29.5;;;15.0;;
36833;SDS011;48003;52.084;5.224;2023-03-03T06:35:28;27.3;;;14.8;;
36833;SDS011;48003;52.084;5.224;2023-03-03T06:38:41;29.0;;;15.4;;
36833;SDS011;48003;52.084;5.224;2023-03-03T06:40:18;31.8;;;15.3;;
36833;SDS011;48003;52.084;5.224;2023-03-03T06:41:54;29.7;;;15.3;;
36833;SDS011;48003;52.084;5.224;2023-03-03T06:45:06;29.7;;;16.0;;
36833;SDS011;48003;52.084;5.224;2023-03-03T06:46:43;31.5;;;16.0;;
36833;SDS011;48003;52.084;5.224;2023-03-03T06:48:19;26.0;;;14.7;;
36833;SDS011;48003;52.084;5.224;2023-03-03T06:49:55;27.8;;;15.3;;
36833;SDS011;48003;52.084;5.224;2023-03-03T06:53:11;29.1;;;14.9;;
36833;SDS011;48003;52.084;5.224;2023-03-03T06:54:50;27.1;;;14.4;;
36833;SDS011;48003;52.084;5.224;2023-03-03T06:56:30;25.4;;;14.6;;
36833;SDS011;48003;52.084;5.224;2023-03-03T06:59:51;29.6;;;14.9;;
36833;SDS011;48003;52.084;5.224;2023-03-03T07:01:29;27.6;;;14.1;;
36833;SDS011;48003;52.084;5.224;2023-03-03T07:03:13;27.3;;;14.0;;
36833;SDS011;48003;52.084;5.224;2023-03-03T07:04:51;25.1;;;14.2;;
36833;SDS011;48003;52.084;5.224;2023-03-03T07:08:09;27.2;;;14.2;;
36833;SDS011;48003;52.084;5.224;2023-03-03T07:09:51;23.8;;;13.3;;
36833;SDS011;48003;52.084;5.224;2023-03-03T07:11:29;24.0;;;13.6;;
36833;SDS011;48003;52.084;5.224;2023-03-03T07:13:15;24.0;;;13.6;;
36833;SDS011;48003;52.084;5.224;2023-03-03T07:16:49;23.5;;;12.8;;
36833;SDS011;48003;52.084;5.224;2023-03-03T07:18:33;23.7;;;13.2;;
36833;SDS011;48003;52.084;5.224;2023-03-03T07:20:14;24.5;;;12.8;;
36833;SDS011;48003;52.084;5.224;2023-03-03T07:21:55;24.5;;;13.2;;
36833;SDS011;48003;52.084;5.224;2023-03-03T07:23:34;26.6;;;13.3;;
36833;SDS011;48003;52.084;5.224;2023-03-03T07:27:09;23.9;;;13.6;;
36833;SDS011;48003;52.084;5.224;2023-03-03T07:28:50;26.2;;;13.9;;
36833;SDS011;48003;52.084;5.224;2023-03-03T07:30:29;25.1;;;12.9;;
36833;SDS011;48003;52.084;5.224;2023-03-03T07:32:05;25.1;;;12.9;;
36833;SDS011;48003;52.084;5.224;2023-03-03T07:33:58;23.6;;;13.4;;
36833;SDS011;48003;52.084;5.224;2023-03-03T07:37:15;24.6;;;13.2;;
36833;SDS011;48003;52.084;5.224;2023-03-03T07:39:20;23.9;;;12.6;;
36833;SDS011;48003;52.084;5.224;2023-03-03T07:41:04;24.3;;;13.3;;
36833;SDS011;48003;52.084;5.224;2023-03-03T07:42:46;24.7;;;13.3;;
36833;SDS011;48003;52.084;5.224;2023-03-03T07:44:24;25.3;;;13.0;;
36833;SDS011;48003;52.084;5.224;2023-03-03T07:48:02;25.3;;;12.9;;
36833;SDS011;48003;52.084;5.224;2023-03-03T07:49:55;18.91;;;11.6;;
36833;SDS011;48003;52.084;5.224;2023-03-03T07:51:35;23.3;;;12.6;;
36833;SDS011;48003;52.084;5.224;2023-03-03T07:53:19;23.6;;;12.7;;
36833;SDS011;48003;52.084;5.224;2023-03-03T07:57:12;22.7;;;13.2;;
36833;SDS011;48003;52.084;5.224;2023-03-03T07:58:57;25.1;;;13.7;;
36833;SDS011;48003;52.084;5.224;2023-03-03T08:03:15;23.1;;;12.6;;
36833;SDS011;48003;52.084;5.224;2023-03-03T08:06:30;24.4;;;12.1;;
36833;SDS011;48003;52.084;5.224;2023-03-03T08:08:26;23.0;;;12.5;;
36833;SDS011;48003;52.084;5.224;2023-03-03T08:10:06;24.2;;;13.2;;
36833;SDS011;48003;52.084;5.224;2023-03-03T08:12:13;22.4;;;12.4;;
36833;SDS011;48003;52.084;5.224;2023-03-03T08:14:12;23.3;;;12.4;;
36833;SDS011;48003;52.084;5.224;2023-03-03T08:15:55;23.5;;;12.8;;
36833;SDS011;48003;52.084;5.224;2023-03-03T08:19:14;21.5;;;12.8;;
36833;SDS011;48003;52.084;5.224;2023-03-03T08:20:54;22.5;;;12.7;;
36833;SDS011;48003;52.084;5.224;2023-03-03T08:22:33;23.8;;;12.7;;
36833;SDS011;48003;52.084;5.224;2023-03-03T08:24:10;22.9;;;12.5;;
36833;SDS011;48003;52.084;5.224;2023-03-03T08:27:24;22.1;;;12.4;;
36833;SDS011;48003;52.084;5.224;2023-03-03T08:29:00;22.4;;;12.6;;
36833;SDS011;48003;52.084;5.224;2023-03-03T08:30:36;23.1;;;12.6;;
36833;SDS011;48003;52.084;5.224;2023-03-03T08:33:50;26.6;;;12.9;;
36833;SDS011;48003;52.084;5.224;2023-03-03T08:35:27;25.1;;;13.1;;
36833;SDS011;48003;52.084;5.224;2023-03-03T08:37:03;25.3;;;13.1;;
36833;SDS011;48003;52.084;5.224;2023-03-03T08:38:39;23.7;;;12.8;;
36833;SDS011;48003;52.084;5.224;2023-03-03T08:41:52;25.2;;;12.5;;
36833;SDS011;48003;52.084;5.224;2023-03-03T08:43:28;25.2;;;12.5;;
36833;SDS011;48003;52.084;5.224;2023-03-03T08:45:05;24.6;;;12.7;;
36833;SDS011;48003;52.084;5.224;2023-03-03T08:48:18;21.5;;;12.3;;
36833;SDS011;48003;52.084;5.224;2023-03-03T08:49:56;21.3;;;12.0;;
36833;SDS011;48003;52.084;5.224;2023-03-03T08:54:45;18.91;;;9.81;;
36833;SDS011;48003;52.084;5.224;2023-03-03T08:56:21;19.41;;;9.71;;
36833;SDS011;48003;52.084;5.224;2023-03-03T08:57:58;17.3;;;10.0;;
36833;SDS011;48003;52.084;5.224;2023-03-03T08:59:34;17.11;;;9.5;;
36833;SDS011;48003;52.084;5.224;2023-03-03T09:02:46;17.41;;;9.71;;
36833;SDS011;48003;52.084;5.224;2023-03-03T09:04:23;16.2;;;9.31;;
36833;SDS011;48003;52.084;5.224;2023-03-03T09:06:00;17.41;;;9.4;;
36833;SDS011;48003;52.084;5.224;2023-03-03T09:09:13;17.91;;;9.5;;
36833;SDS011;48003;52.084;5.224;2023-03-03T09:10:49;17.3;;;8.9;;
36833;SDS011;48003;52.084;5.224;2023-03-03T09:12:28;12.9;;;7.3;;
36833;SDS011;48003;52.084;5.224;2023-03-03T09:15:46;13.7;;;8.1;;
36833;SDS011;48003;52.084;5.224;2023-03-03T09:17:24;12.6;;;7.5;;
36833;SDS011;48003;52.084;5.224;2023-03-03T09:19:18;14.8;;;7.7;;
36833;SDS011;48003;52.084;5.224;2023-03-03T09:20:59;14.1;;;8.4;;
36833;SDS011;48003;52.084;5.224;2023-03-03T09:22:36;13.5;;;7.7;;
36833;SDS011;48003;52.084;5.224;2023-03-03T09:26:11;11.7;;;6.8;;
36833;SDS011;48003;52.084;5.224;2023-03-03T09:28:07;12.8;;;6.8;;
36833;SDS011;48003;52.084;5.224;2023-03-03T09:29:59;10.7;;;6.9;;
36833;SDS011;48003;52.084;5.224;2023-03-03T09:31:38;13.2;;;6.7;;
36833;SDS011;48003;52.084;5.224;2023-03-03T09:33:20;12.4;;;6.4;;
36833;SDS011;48003;52.084;5.224;2023-03-03T09:37:18;12.5;;;6.8;;
36833;SDS011;48003;52.084;5.224;2023-03-03T09:38:57;12.2;;;6.6;;
36833;SDS011;48003;52.084;5.224;2023-03-03T09:40:39;11.4;;;6.4;;
36833;SDS011;48003;52.084;5.224;2023-03-03T09:42:33;11.6;;;6.6;;
36833;SDS011;48003;52.084;5.224;2023-03-03T09:44:44;12.1;;;6.6;;
36833;SDS011;48003;52.084;5.224;2023-03-03T09:47:47;10.6;;;5.9;;
36833;SDS011;48003;52.084;5.224;2023-03-03T09:51:33;10.9;;;6.5;;
36833;SDS011;48003;52.084;5.224;2023-03-03T09:53:54;11.1;;;6.6;;
36833;SDS011;48003;52.084;5.224;2023-03-03T09:55:56;12.2;;;6.4;;
36833;SDS011;48003;52.084;5.224;2023-03-03T09:57:43;13.2;;;6.6;;
36833;SDS011;48003;52.084;5.224;2023-03-03T09:59:38;10.4;;;6.2;;
36833;SDS011;48003;52.084;5.224;2023-03-03T10:01:32;11.0;;;6.4;;
36833;SDS011;48003;52.084;5.224;2023-03-03T10:05:01;12.2;;;6.3;;
36833;SDS011;48003;52.084;5.224;2023-03-03T10:06:48;11.0;;;5.9;;
36833;SDS011;48003;52.084;5.224;2023-03-03T10:10:37;12.1;;;6.5;;
36833;SDS011;48003;52.084;5.224;2023-03-03T10:12:55;12.1;;;6.7;;
36833;SDS011;48003;52.084;5.224;2023-03-03T10:17:12;12.9;;;6.9;;
36833;SDS011;48003;52.084;5.224;2023-03-03T10:20:46;12.2;;;7.1;;
36833;SDS011;48003;52.084;5.224;2023-03-03T10:22:38;10.8;;;6.7;;
36833;SDS011;48003;52.084;5.224;2023-03-03T10:24:26;12.6;;;6.9;;
36833;SDS011;48003;52.084;5.224;2023-03-03T10:26:07;11.1;;;6.4;;
36833;SDS011;48003;52.084;5.224;2023-03-03T10:28:00;12.8;;;6.7;;
36833;SDS011;48003;52.084;5.224;2023-03-03T10:29:56;11.9;;;6.8;;
36833;SDS011;48003;52.084;5.224;2023-03-03T10:31:45;12.4;;;6.0;;
36833;SDS011;48003;52.084;5.224;2023-03-03T10:35:27;11.2;;;6.6;;
36833;SDS011;48003;52.084;5.224;2023-03-03T10:37:14;11.2;;;6.6;;
36833;SDS011;48003;52.084;5.224;2023-03-03T10:39:02;11.9;;;5.8;;
36833;SDS011;48003;52.084;5.224;2023-03-03T10:40:57;10.6;;;5.7;;
36833;SDS011;48003;52.084;5.224;2023-03-03T10:42:51;12.5;;;5.9;;
36833;SDS011;48003;52.084;5.224;2023-03-03T10:44:47;11.9;;;6.1;;
36833;SDS011;48003;52.084;5.224;2023-03-03T10:46:42;9.9;;;5.7;;
36833;SDS011;48003;52.084;5.224;2023-03-03T10:48:39;12.9;;;6.2;;
36833;SDS011;48003;52.084;5.224;2023-03-03T10:50:29;11.3;;;5.3;;
36833;SDS011;48003;52.084;5.224;2023-03-03T10:54:09;9.9;;;5.7;;
36833;SDS011;48003;52.084;5.224;2023-03-03T10:56:07;10.9;;;5.6;;
36833;SDS011;48003;52.084;5.224;2023-03-03T10:58:16;10.5;;;5.5;;
36833;SDS011;48003;52.084;5.224;2023-03-03T11:00:14;10.1;;;5.6;;
36833;SDS011;48003;52.084;5.224;2023-03-03T11:02:00;11.1;;;5.5;;
36833;SDS011;48003;52.084;5.224;2023-03-03T11:03:54;8.2;;;4.8;;
36833;SDS011;48003;52.084;5.224;2023-03-03T11:06:57;8.5;;;4.5;;
36833;SDS011;48003;52.084;5.224;2023-03-03T11:08:42;7.1;;;3.9;;
36833;SDS011;48003;52.084;5.224;2023-03-03T11:10:28;6.9;;;3.8;;
36833;SDS011;48003;52.084;5.224;2023-03-03T11:12:20;7.7;;;3.5;;
36833;SDS011;48003;52.084;5.224;2023-03-03T11:14:15;5.8;;;3.4;;
36833;SDS011;48003;52.084;5.224;2023-03-03T11:16:05;8.9;;;3.5;;
36833;SDS011;48003;52.084;5.224;2023-03-03T11:18:00;6.6;;;3.3;;
36833;SDS011;48003;52.084;5.224;2023-03-03T11:19:53;6.5;;;3.2;;
36833;SDS011;48003;52.084;5.224;2023-03-03T11:23:30;7.8;;;3.6;;
36833;SDS011;48003;52.084;5.224;2023-03-03T11:25:24;6.5;;;3.3;;
36833;SDS011;48003;52.084;5.224;2023-03-03T11:27:10;6.5;;;3.3;;
36833;SDS011;48003;52.084;5.224;2023-03-03T11:29:07;6.2;;;3.4;;
36833;SDS011;48003;52.084;5.224;2023-03-03T11:30:59;8.0;;;3.5;;
36833;SDS011;48003;52.084;5.224;2023-03-03T11:32:50;7.3;;;3.3;;
36833;SDS011;48003;52.084;5.224;2023-03-03T11:34:43;7.8;;;3.5;;
36833;SDS011;48003;52.084;5.224;2023-03-03T11:36:33;5.0;;;2.8;;
36833;SDS011;48003;52.084;5.224;2023-03-03T11:40:58;5.5;;;2.21;;
36833;SDS011;48003;52.084;5.224;2023-03-03T11:44:31;6.0;;;2.8;;
36833;SDS011;48003;52.084;5.224;2023-03-03T11:46:13;6.5;;;2.7;;
36833;SDS011;48003;52.084;5.224;2023-03-03T11:47:55;5.5;;;2.7;;
36833;SDS011;48003;52.084;5.224;2023-03-03T11:49:38;6.4;;;2.6;;
36833;SDS011;48003;52.084;5.224;2023-03-03T11:51:24;6.6;;;2.5;;
36833;SDS011;48003;52.084;5.224;2023-03-03T11:53:19;6.7;;;2.5;;
36833;SDS011;48003;52.084;5.224;2023-03-03T11:55:19;4.8;;;2.6;;
36833;SDS011;48003;52.084;5.224;2023-03-03T11:58:57;7.6;;;2.5;;
36833;SDS011;48003;52.084;5.224;2023-03-03T12:00:46;3.9;;;1.9;;
36833;SDS011;48003;52.084;5.224;2023-03-03T12:02:30;3.8;;;1.7;;
36833;SDS011;48003;52.084;5.224;2023-03-03T12:04:29;3.2;;;1.4;;
36833;SDS011;48003;52.084;5.224;2023-03-03T12:06:15;3.8;;;1.7;;
36833;SDS011;48003;52.084;5.224;2023-03-03T12:08:02;2.7;;;1.3;;
36833;SDS011;48003;52.084;5.224;2023-03-03T12:11:46;5.0;;;1.5;;
36833;SDS011;48003;52.084;5.224;2023-03-03T12:13:29;3.1;;;1.6;;
36833;SDS011;48003;52.084;5.224;2023-03-03T12:15:21;3.0;;;1.2;;
36833;SDS011;48003;52.084;5.224;2023-03-03T12:17:11;3.2;;;1.2;;
36833;SDS011;48003;52.084;5.224;2023-03-03T12:19:06;2.8;;;1.4;;
36833;SDS011;48003;52.084;5.224;2023-03-03T12:20:57;3.2;;;1.4;;
36833;SDS011;48003;52.084;5.224;2023-03-03T12:22:51;2.7;;;1.4;;
36833;SDS011;48003;52.084;5.224;2023-03-03T12:24:45;3.7;;;1.6;;
36833;SDS011;48003;52.084;5.224;2023-03-03T12:28:26;4.5;;;1.8;;
36833;SDS011;48003;52.084;5.224;2023-03-03T12:30:12;4.5;;;1.8;;
36833;SDS011;48003;52.084;5.224;2023-03-03T12:32:03;3.3;;;1.6;;
36833;SDS011;48003;52.084;5.224;2023-03-03T12:33:54;4.2;;;1.3;;
36833;SDS011;48003;52.084;5.224;2023-03-03T12:35:35;3.9;;;1.2;;
36833;SDS011;48003;52.084;5.224;2023-03-03T12:37:20;2.9;;;1.11;;
36833;SDS011;48003;52.084;5.224;2023-03-03T12:40:56;4.3;;;1.2;;
36833;SDS011;48003;52.084;5.224;2023-03-03T12:42:42;2.8;;;1.2;;
36833;SDS011;48003;52.084;5.224;2023-03-03T12:44:33;2.5;;;1.2;;
36833;SDS011;48003;52.084;5.224;2023-03-03T12:46:18;3.1;;;1.11;;
36833;SDS011;48003;52.084;5.224;2023-03-03T12:48:04;2.1;;;1.11;;
36833;SDS011;48003;52.084;5.224;2023-03-03T12:49:47;3.8;;;1.5;;
36833;SDS011;48003;52.084;5.224;2023-03-03T12:53:30;5.9;;;3.0;;
36833;SDS011;48003;52.084;5.224;2023-03-03T12:55:23;3.7;;;1.4;;